sensor_id;sensor_type;location;lat;lon;timestamp;temperature;humidity
47961;DHT22;33721;48.852;9.936;2023-03-15T00:00:46;2.60;99.90
47961;DHT22;33721;48.852;9.936;2023-03-15T00:03:12;2.50;99.90
47961;DHT22;33721;48.852;9.936;2023-03-15T00:05:46;2.40;99.90
47961;DHT22;33721;48.852;9.936;2023-03-15T00:08:15;2.30;99.90
47961;DHT22;33721;48.852;9.936;2023-03-15T00:10:45;2.20;99.90
47961;DHT22;33721;48.852;9.936;2023-03-15T00:13:12;2.30;99.90
47961;DHT22;33721;48.852;9.936;2023-03-15T00:15:45;2.20;99.90
47961;DHT22;33721;48.852;9.936;2023-03-15T00:18:12;2.10;99.90
47961;DHT22;33721;48.852;9.936;2023-03-15T00:20:37;2.10;99.90
47961;DHT22;33721;48.852;9.936;2023-03-15T00:23:03;2.10;99.90
47961;DHT22;33721;48.852;9.936;2023-03-15T00:25:29;2.10;99.90
47961;DHT22;33721;48.852;9.936;2023-03-15T00:27:54;2.00;99.90
47961;DHT22;33721;48.852;9.936;2023-03-15T00:30:20;2.00;99.90
47961;DHT22;33721;48.852;9.936;2023-03-15T00:32:46;2.00;99.90
47961;DHT22;33721;48.852;9.936;2023-03-15T00:35:12;1.90;99.90
47961;DHT22;33721;48.852;9.936;2023-03-15T00:37:38;1.90;99.90
47961;DHT22;33721;48.852;9.936;2023-03-15T00:40:04;1.90;99.90
47961;DHT22;33721;48.852;9.936;2023-03-15T00:42:31;1.80;99.90
47961;DHT22;33721;48.852;9.936;2023-03-15T00:44:58;1.80;99.90
47961;DHT22;33721;48.852;9.936;2023-03-15T00:47:24;1.80;99.90
47961;DHT22;33721;48.852;9.936;2023-03-15T00:49:50;1.80;99.90
47961;DHT22;33721;48.852;9.936;2023-03-15T00:52:16;1.80;99.90
47961;DHT22;33721;48.852;9.936;2023-03-15T00:54:42;1.70;99.90
47961;DHT22;33721;48.852;9.936;2023-03-15T00:57:08;1.70;99.90
47961;DHT22;33721;48.852;9.936;2023-03-15T00:59:34;1.70;99.90
47961;DHT22;33721;48.852;9.936;2023-03-15T01:02:06;1.80;99.90
47961;DHT22;33721;48.852;9.936;2023-03-15T01:04:32;1.80;99.90
47961;DHT22;33721;48.852;9.936;2023-03-15T01:06:58;1.80;99.90
47961;DHT22;33721;48.852;9.936;2023-03-15T01:09:24;1.80;99.90
47961;DHT22;33721;48.852;9.936;2023-03-15T01:11:50;1.80;99.90
47961;DHT22;33721;48.852;9.936;2023-03-15T01:14:16;1.90;99.90
47961;DHT22;33721;48.852;9.936;2023-03-15T01:16:44;1.90;99.90
47961;DHT22;33721;48.852;9.936;2023-03-15T01:19:11;1.90;99.90
47961;DHT22;33721;48.852;9.936;2023-03-15T01:21:37;1.90;99.90
47961;DHT22;33721;48.852;9.936;2023-03-15T01:24:02;2.00;99.90
47961;DHT22;33721;48.852;9.936;2023-03-15T01:26:28;1.90;99.90
47961;DHT22;33721;48.852;9.936;2023-03-15T01:28:54;1.90;99.90
47961;DHT22;33721;48.852;9.936;2023-03-15T01:31:23;1.90;99.90
47961;DHT22;33721;48.852;9.936;2023-03-15T01:33:52;1.90;99.90
47961;DHT22;33721;48.852;9.936;2023-03-15T01:36:18;1.80;99.90
47961;DHT22;33721;48.852;9.936;2023-03-15T01:38:44;1.70;99.90
47961;DHT22;33721;48.852;9.936;2023-03-15T01:41:11;1.60;99.90
47961;DHT22;33721;48.852;9.936;2023-03-15T01:43:37;1.50;99.90
47961;DHT22;33721;48.852;9.936;2023-03-15T01:51:23;1.50;99.90
47961;DHT22;33721;48.852;9.936;2023-03-15T01:54:17;1.50;99.90
47961;DHT22;33721;48.852;9.936;2023-03-15T01:57:01;1.60;99.90
47961;DHT22;33721;48.852;9.936;2023-03-15T01:59:39;1.60;99.90
47961;DHT22;33721;48.852;9.936;2023-03-15T02:02:05;1.50;99.90
47961;DHT22;33721;48.852;9.936;2023-03-15T02:04:39;1.50;99.90
47961;DHT22;33721;48.852;9.936;2023-03-15T02:07:07;1.40;99.90
47961;DHT22;33721;48.852;9.936;2023-03-15T02:10:01;1.30;99.90
47961;DHT22;33721;48.852;9.936;2023-03-15T02:12:31;1.40;99.90
47961;DHT22;33721;48.852;9.936;2023-03-15T02:14:59;1.40;99.90
47961;DHT22;33721;48.852;9.936;2023-03-15T02:17:39;1.50;99.90
47961;DHT22;33721;48.852;9.936;2023-03-15T02:23:06;1.50;99.90
47961;DHT22;33721;48.852;9.936;2023-03-15T02:28:19;1.40;99.90
47961;DHT22;33721;48.852;9.936;2023-03-15T02:30:45;1.30;99.90
47961;DHT22;33721;48.852;9.936;2023-03-15T02:33:22;1.30;99.90
47961;DHT22;33721;48.852;9.936;2023-03-15T02:35:49;1.30;99.90
47961;DHT22;33721;48.852;9.936;2023-03-15T02:38:16;1.30;99.90
47961;DHT22;33721;48.852;9.936;2023-03-15T02:40:43;1.20;99.90
47961;DHT22;33721;48.852;9.936;2023-03-15T02:43:15;1.30;99.90
47961;DHT22;33721;48.852;9.936;2023-03-15T02:45:42;1.20;99.90
47961;DHT22;33721;48.852;9.936;2023-03-15T02:48:10;1.30;99.90
47961;DHT22;33721;48.852;9.936;2023-03-15T02:50:36;1.30;99.90
47961;DHT22;33721;48.852;9.936;2023-03-15T02:53:02;1.30;99.90
47961;DHT22;33721;48.852;9.936;2023-03-15T02:55:29;1.30;99.90
47961;DHT22;33721;48.852;9.936;2023-03-15T02:57:57;1.30;99.90
47961;DHT22;33721;48.852;9.936;2023-03-15T03:00:23;1.30;99.90
47961;DHT22;33721;48.852;9.936;2023-03-15T03:02:49;1.40;99.90
47961;DHT22;33721;48.852;9.936;2023-03-15T03:05:15;1.40;99.90
47961;DHT22;33721;48.852;9.936;2023-03-15T03:07:41;1.40;99.90
47961;DHT22;33721;48.852;9.936;2023-03-15T03:10:08;1.40;99.90
47961;DHT22;33721;48.852;9.936;2023-03-15T03:12:35;1.40;99.90
47961;DHT22;33721;48.852;9.936;2023-03-15T03:15:00;1.40;99.90
47961;DHT22;33721;48.852;9.936;2023-03-15T03:17:28;1.40;99.90
47961;DHT22;33721;48.852;9.936;2023-03-15T03:19:53;1.50;99.90
47961;DHT22;33721;48.852;9.936;2023-03-15T03:22:19;1.40;99.90
47961;DHT22;33721;48.852;9.936;2023-03-15T03:24:51;1.40;99.90
47961;DHT22;33721;48.852;9.936;2023-03-15T03:27:18;1.30;99.90
47961;DHT22;33721;48.852;9.936;2023-03-15T03:29:44;1.30;99.90
47961;DHT22;33721;48.852;9.936;2023-03-15T03:32:09;1.30;99.90
47961;DHT22;33721;48.852;9.936;2023-03-15T03:34:35;1.30;99.90
47961;DHT22;33721;48.852;9.936;2023-03-15T03:37:01;1.30;99.90
47961;DHT22;33721;48.852;9.936;2023-03-15T03:39:27;1.30;99.90
47961;DHT22;33721;48.852;9.936;2023-03-15T03:41:53;1.20;99.90
47961;DHT22;33721;48.852;9.936;2023-03-15T03:44:18;1.30;99.90
47961;DHT22;33721;48.852;9.936;2023-03-15T03:46:44;1.20;99.90
47961;DHT22;33721;48.852;9.936;2023-03-15T03:49:10;1.20;99.90
47961;DHT22;33721;48.852;9.936;2023-03-15T03:51:35;1.20;99.90
47961;DHT22;33721;48.852;9.936;2023-03-15T03:54:02;1.20;99.90
47961;DHT22;33721;48.852;9.936;2023-03-15T03:56:29;1.30;99.90
47961;DHT22;33721;48.852;9.936;2023-03-15T03:58:55;1.30;99.90
47961;DHT22;33721;48.852;9.936;2023-03-15T04:01:20;1.30;99.90
47961;DHT22;33721;48.852;9.936;2023-03-15T04:03:47;1.30;99.90
47961;DHT22;33721;48.852;9.936;2023-03-15T04:06:13;1.30;99.90
47961;DHT22;33721;48.852;9.936;2023-03-15T04:08:40;1.20;99.90
47961;DHT22;33721;48.852;9.936;2023-03-15T04:11:05;1.20;99.90
47961;DHT22;33721;48.852;9.936;2023-03-15T04:13:31;1.20;99.90
47961;DHT22;33721;48.852;9.936;2023-03-15T04:15:57;1.20;99.90
47961;DHT22;33721;48.852;9.936;2023-03-15T04:18:26;1.20;99.90
47961;DHT22;33721;48.852;9.936;2023-03-15T04:20:52;1.10;99.90
47961;DHT22;33721;48.852;9.936;2023-03-15T04:23:20;1.10;99.90
47961;DHT22;33721;48.852;9.936;2023-03-15T04:25:48;1.10;99.90
47961;DHT22;33721;48.852;9.936;2023-03-15T04:28:14;1.10;99.90
47961;DHT22;33721;48.852;9.936;2023-03-15T04:30:40;1.10;99.90
47961;DHT22;33721;48.852;9.936;2023-03-15T04:33:10;1.10;99.90
47961;DHT22;33721;48.852;9.936;2023-03-15T04:35:37;1.20;99.90
47961;DHT22;33721;48.852;9.936;2023-03-15T04:38:04;1.20;99.90
47961;DHT22;33721;48.852;9.936;2023-03-15T04:40:31;1.20;99.90
47961;DHT22;33721;48.852;9.936;2023-03-15T04:43:00;1.20;99.90
47961;DHT22;33721;48.852;9.936;2023-03-15T04:45:26;1.20;99.90
47961;DHT22;33721;48.852;9.936;2023-03-15T04:47:53;1.10;99.90
47961;DHT22;33721;48.852;9.936;2023-03-15T04:50:20;1.10;99.90
47961;DHT22;33721;48.852;9.936;2023-03-15T04:52:47;1.10;99.90
47961;DHT22;33721;48.852;9.936;2023-03-15T04:55:12;1.10;99.90
47961;DHT22;33721;48.852;9.936;2023-03-15T04:57:38;1.10;99.90
47961;DHT22;33721;48.852;9.936;2023-03-15T05:00:05;1.10;99.90
47961;DHT22;33721;48.852;9.936;2023-03-15T05:02:35;1.00;99.90
47961;DHT22;33721;48.852;9.936;2023-03-15T05:05:07;1.00;99.90
47961;DHT22;33721;48.852;9.936;2023-03-15T05:07:34;1.00;99.90
47961;DHT22;33721;48.852;9.936;2023-03-15T05:10:00;1.00;99.90
47961;DHT22;33721;48.852;9.936;2023-03-15T05:12:26;1.00;99.90
47961;DHT22;33721;48.852;9.936;2023-03-15T05:14:52;1.00;99.90
47961;DHT22;33721;48.852;9.936;2023-03-15T05:17:18;1.00;99.90
47961;DHT22;33721;48.852;9.936;2023-03-15T05:19:43;1.00;99.90
47961;DHT22;33721;48.852;9.936;2023-03-15T05:22:10;1.00;99.90
47961;DHT22;33721;48.852;9.936;2023-03-15T05:24:36;1.00;99.90
47961;DHT22;33721;48.852;9.936;2023-03-15T05:27:05;1.00;99.90
47961;DHT22;33721;48.852;9.936;2023-03-15T05:29:31;1.00;99.90
47961;DHT22;33721;48.852;9.936;2023-03-15T05:31:57;0.90;99.90
47961;DHT22;33721;48.852;9.936;2023-03-15T05:34:22;0.90;99.90
47961;DHT22;33721;48.852;9.936;2023-03-15T05:36:51;0.90;99.90
47961;DHT22;33721;48.852;9.936;2023-03-15T05:39:17;0.80;99.90
47961;DHT22;33721;48.852;9.936;2023-03-15T05:41:43;0.80;99.90
47961;DHT22;33721;48.852;9.936;2023-03-15T05:44:09;0.90;99.90
47961;DHT22;33721;48.852;9.936;2023-03-15T05:46:35;0.90;99.90
47961;DHT22;33721;48.852;9.936;2023-03-15T05:49:00;0.80;99.90
47961;DHT22;33721;48.852;9.936;2023-03-15T05:51:26;0.80;99.90
47961;DHT22;33721;48.852;9.936;2023-03-15T05:53:51;0.80;99.90
47961;DHT22;33721;48.852;9.936;2023-03-15T05:56:17;0.80;99.90
47961;DHT22;33721;48.852;9.936;2023-03-15T05:58:43;0.80;99.90
47961;DHT22;33721;48.852;9.936;2023-03-15T06:01:08;0.70;99.90
47961;DHT22;33721;48.852;9.936;2023-03-15T06:03:34;0.70;99.90
47961;DHT22;33721;48.852;9.936;2023-03-15T06:06:00;0.70;99.90
47961;DHT22;33721;48.852;9.936;2023-03-15T06:08:25;0.80;99.90
47961;DHT22;33721;48.852;9.936;2023-03-15T06:10:51;0.80;99.90
47961;DHT22;33721;48.852;9.936;2023-03-15T06:13:17;0.80;99.90
47961;DHT22;33721;48.852;9.936;2023-03-15T06:15:45;0.80;99.90
47961;DHT22;33721;48.852;9.936;2023-03-15T06:18:11;0.80;99.90
47961;DHT22;33721;48.852;9.936;2023-03-15T06:20:38;0.80;99.90
47961;DHT22;33721;48.852;9.936;2023-03-15T06:23:04;0.80;99.90
47961;DHT22;33721;48.852;9.936;2023-03-15T06:25:30;0.80;99.90
47961;DHT22;33721;48.852;9.936;2023-03-15T06:27:56;0.80;99.90
47961;DHT22;33721;48.852;9.936;2023-03-15T06:30:21;0.80;99.90
47961;DHT22;33721;48.852;9.936;2023-03-15T06:32:47;0.90;99.90
47961;DHT22;33721;48.852;9.936;2023-03-15T06:35:13;0.80;99.90
47961;DHT22;33721;48.852;9.936;2023-03-15T06:37:39;0.90;99.90
47961;DHT22;33721;48.852;9.936;2023-03-15T06:40:08;0.90;99.90
47961;DHT22;33721;48.852;9.936;2023-03-15T06:42:34;0.90;99.90
47961;DHT22;33721;48.852;9.936;2023-03-15T06:45:00;0.90;99.90
47961;DHT22;33721;48.852;9.936;2023-03-15T06:47:28;0.90;99.90
47961;DHT22;33721;48.852;9.936;2023-03-15T06:49:54;0.90;99.90
47961;DHT22;33721;48.852;9.936;2023-03-15T06:52:20;0.90;99.90
47961;DHT22;33721;48.852;9.936;2023-03-15T06:54:45;0.90;99.90
47961;DHT22;33721;48.852;9.936;2023-03-15T06:57:11;0.80;99.90
47961;DHT22;33721;48.852;9.936;2023-03-15T06:59:37;0.80;99.90
47961;DHT22;33721;48.852;9.936;2023-03-15T07:02:02;0.90;99.90
47961;DHT22;33721;48.852;9.936;2023-03-15T07:04:28;0.90;99.90
47961;DHT22;33721;48.852;9.936;2023-03-15T07:06:54;0.90;99.90
47961;DHT22;33721;48.852;9.936;2023-03-15T07:09:19;0.90;99.90
47961;DHT22;33721;48.852;9.936;2023-03-15T07:11:45;0.90;99.90
47961;DHT22;33721;48.852;9.936;2023-03-15T07:14:11;1.10;99.90
47961;DHT22;33721;48.852;9.936;2023-03-15T07:16:36;1.10;99.90
47961;DHT22;33721;48.852;9.936;2023-03-15T07:19:02;1.10;99.90
47961;DHT22;33721;48.852;9.936;2023-03-15T07:21:28;1.10;99.90
47961;DHT22;33721;48.852;9.936;2023-03-15T07:23:54;1.20;99.90
47961;DHT22;33721;48.852;9.936;2023-03-15T07:26:20;1.30;99.90
47961;DHT22;33721;48.852;9.936;2023-03-15T07:28:45;1.30;99.90
47961;DHT22;33721;48.852;9.936;2023-03-15T07:31:11;1.40;99.90
47961;DHT22;33721;48.852;9.936;2023-03-15T07:33:37;1.50;99.90
47961;DHT22;33721;48.852;9.936;2023-03-15T07:36:05;1.50;99.90
47961;DHT22;33721;48.852;9.936;2023-03-15T07:38:31;1.60;99.90
47961;DHT22;33721;48.852;9.936;2023-03-15T07:41:00;1.60;99.90
47961;DHT22;33721;48.852;9.936;2023-03-15T07:43:25;1.70;99.90
47961;DHT22;33721;48.852;9.936;2023-03-15T07:45:51;1.60;99.90
47961;DHT22;33721;48.852;9.936;2023-03-15T07:48:17;1.70;99.90
47961;DHT22;33721;48.852;9.936;2023-03-15T07:50:44;1.70;99.90
47961;DHT22;33721;48.852;9.936;2023-03-15T07:53:09;1.80;99.90
47961;DHT22;33721;48.852;9.936;2023-03-15T07:55:35;1.80;99.90
47961;DHT22;33721;48.852;9.936;2023-03-15T07:58:01;1.90;99.90
47961;DHT22;33721;48.852;9.936;2023-03-15T08:00:27;2.00;99.90
47961;DHT22;33721;48.852;9.936;2023-03-15T08:02:53;2.10;99.90
47961;DHT22;33721;48.852;9.936;2023-03-15T08:05:19;2.10;99.90
47961;DHT22;33721;48.852;9.936;2023-03-15T08:07:46;2.20;99.90
47961;DHT22;33721;48.852;9.936;2023-03-15T08:10:13;2.30;99.90
47961;DHT22;33721;48.852;9.936;2023-03-15T08:12:40;2.30;99.90
47961;DHT22;33721;48.852;9.936;2023-03-15T08:15:09;2.30;99.90
47961;DHT22;33721;48.852;9.936;2023-03-15T08:17:36;2.20;99.90
47961;DHT22;33721;48.852;9.936;2023-03-15T08:20:01;2.30;99.90
47961;DHT22;33721;48.852;9.936;2023-03-15T08:22:27;2.40;99.90
47961;DHT22;33721;48.852;9.936;2023-03-15T08:24:54;2.40;99.90
47961;DHT22;33721;48.852;9.936;2023-03-15T08:27:22;2.50;99.90
47961;DHT22;33721;48.852;9.936;2023-03-15T08:29:48;2.50;99.90
47961;DHT22;33721;48.852;9.936;2023-03-15T08:32:15;2.50;99.90
47961;DHT22;33721;48.852;9.936;2023-03-15T08:34:41;2.60;99.90
47961;DHT22;33721;48.852;9.936;2023-03-15T08:37:08;2.70;99.90
47961;DHT22;33721;48.852;9.936;2023-03-15T08:39:34;2.70;99.90
47961;DHT22;33721;48.852;9.936;2023-03-15T08:42:00;2.60;99.90
47961;DHT22;33721;48.852;9.936;2023-03-15T08:44:26;2.70;99.90
47961;DHT22;33721;48.852;9.936;2023-03-15T08:46:52;2.90;99.90
47961;DHT22;33721;48.852;9.936;2023-03-15T08:49:17;3.10;99.90
47961;DHT22;33721;48.852;9.936;2023-03-15T08:51:43;3.10;99.90
47961;DHT22;33721;48.852;9.936;2023-03-15T08:54:09;3.20;99.90
47961;DHT22;33721;48.852;9.936;2023-03-15T08:56:34;3.20;99.90
47961;DHT22;33721;48.852;9.936;2023-03-15T08:59:00;3.40;99.90
47961;DHT22;33721;48.852;9.936;2023-03-15T09:01:26;3.70;99.90
47961;DHT22;33721;48.852;9.936;2023-03-15T09:03:51;3.60;99.90
47961;DHT22;33721;48.852;9.936;2023-03-15T09:06:17;3.70;99.90
47961;DHT22;33721;48.852;9.936;2023-03-15T09:08:43;3.50;99.90
47961;DHT22;33721;48.852;9.936;2023-03-15T09:11:29;3.30;99.90
47961;DHT22;33721;48.852;9.936;2023-03-15T09:13:55;3.20;99.90
47961;DHT22;33721;48.852;9.936;2023-03-15T09:16:23;3.30;99.90
47961;DHT22;33721;48.852;9.936;2023-03-15T09:18:49;3.60;99.90
47961;DHT22;33721;48.852;9.936;2023-03-15T09:21:14;3.50;99.90
47961;DHT22;33721;48.852;9.936;2023-03-15T09:23:40;3.80;99.90
47961;DHT22;33721;48.852;9.936;2023-03-15T09:26:05;4.10;99.90
47961;DHT22;33721;48.852;9.936;2023-03-15T09:28:31;4.00;99.90
47961;DHT22;33721;48.852;9.936;2023-03-15T09:30:58;4.00;99.90
47961;DHT22;33721;48.852;9.936;2023-03-15T09:33:23;4.10;99.90
47961;DHT22;33721;48.852;9.936;2023-03-15T09:35:52;4.40;99.90
47961;DHT22;33721;48.852;9.936;2023-03-15T09:38:18;4.60;99.90
47961;DHT22;33721;48.852;9.936;2023-03-15T09:40:44;4.60;99.90
47961;DHT22;33721;48.852;9.936;2023-03-15T09:43:50;4.70;99.90
47961;DHT22;33721;48.852;9.936;2023-03-15T09:46:31;4.60;99.90
47961;DHT22;33721;48.852;9.936;2023-03-15T09:51:59;4.50;99.90
47961;DHT22;33721;48.852;9.936;2023-03-15T09:54:40;4.40;99.90
47961;DHT22;33721;48.852;9.936;2023-03-15T09:57:16;4.50;99.90
47961;DHT22;33721;48.852;9.936;2023-03-15T09:59:46;4.70;99.90
47961;DHT22;33721;48.852;9.936;2023-03-15T10:02:18;4.50;99.90
47961;DHT22;33721;48.852;9.936;2023-03-15T10:04:47;4.30;99.90
47961;DHT22;33721;48.852;9.936;2023-03-15T10:07:14;4.40;99.90
47961;DHT22;33721;48.852;9.936;2023-03-15T10:09:41;4.50;99.90
47961;DHT22;33721;48.852;9.936;2023-03-15T10:12:15;4.60;99.90
47961;DHT22;33721;48.852;9.936;2023-03-15T10:17:23;4.40;99.90
47961;DHT22;33721;48.852;9.936;2023-03-15T10:19:54;4.40;99.90
47961;DHT22;33721;48.852;9.936;2023-03-15T10:25:20;4.80;99.90
47961;DHT22;33721;48.852;9.936;2023-03-15T10:27:59;4.70;99.90
47961;DHT22;33721;48.852;9.936;2023-03-15T10:30:28;4.60;99.90
47961;DHT22;33721;48.852;9.936;2023-03-15T10:33:01;4.70;99.90
47961;DHT22;33721;48.852;9.936;2023-03-15T10:35:28;4.90;99.90
47961;DHT22;33721;48.852;9.936;2023-03-15T10:37:54;5.30;99.90
47961;DHT22;33721;48.852;9.936;2023-03-15T10:40:44;5.40;99.90
47961;DHT22;33721;48.852;9.936;2023-03-15T10:43:28;5.30;99.90
47961;DHT22;33721;48.852;9.936;2023-03-15T10:46:02;5.30;99.90
47961;DHT22;33721;48.852;9.936;2023-03-15T10:48:30;5.00;99.90
47961;DHT22;33721;48.852;9.936;2023-03-15T10:50:58;4.90;99.90
47961;DHT22;33721;48.852;9.936;2023-03-15T10:53:25;4.80;99.90
47961;DHT22;33721;48.852;9.936;2023-03-15T10:56:00;4.80;99.90
47961;DHT22;33721;48.852;9.936;2023-03-15T10:58:40;4.90;99.90
47961;DHT22;33721;48.852;9.936;2023-03-15T11:01:10;4.90;99.90
47961;DHT22;33721;48.852;9.936;2023-03-15T11:03:40;5.00;99.90
47961;DHT22;33721;48.852;9.936;2023-03-15T11:06:19;5.00;99.90
47961;DHT22;33721;48.852;9.936;2023-03-15T11:08:45;5.00;99.90
47961;DHT22;33721;48.852;9.936;2023-03-15T11:11:11;5.20;99.90
47961;DHT22;33721;48.852;9.936;2023-03-15T11:13:38;5.20;99.90
47961;DHT22;33721;48.852;9.936;2023-03-15T11:16:20;5.20;99.90
47961;DHT22;33721;48.852;9.936;2023-03-15T11:18:50;5.10;99.90
47961;DHT22;33721;48.852;9.936;2023-03-15T11:21:23;5.00;99.90
47961;DHT22;33721;48.852;9.936;2023-03-15T11:23:50;5.10;99.90
47961;DHT22;33721;48.852;9.936;2023-03-15T11:28:49;5.70;99.90
47961;DHT22;33721;48.852;9.936;2023-03-15T11:31:16;5.90;99.90
47961;DHT22;33721;48.852;9.936;2023-03-15T11:33:50;6.00;99.90
47961;DHT22;33721;48.852;9.936;2023-03-15T11:36:21;6.30;99.90
47961;DHT22;33721;48.852;9.936;2023-03-15T11:38:47;6.00;99.90
47961;DHT22;33721;48.852;9.936;2023-03-15T11:47:03;5.40;99.90
47961;DHT22;33721;48.852;9.936;2023-03-15T11:49:32;5.20;99.90
47961;DHT22;33721;48.852;9.936;2023-03-15T11:51:59;5.00;99.90
47961;DHT22;33721;48.852;9.936;2023-03-15T11:54:28;4.90;99.90
47961;DHT22;33721;48.852;9.936;2023-03-15T11:56:55;4.80;99.90
47961;DHT22;33721;48.852;9.936;2023-03-15T11:59:47;4.70;99.90
47961;DHT22;33721;48.852;9.936;2023-03-15T12:04:44;4.60;99.90
47961;DHT22;33721;48.852;9.936;2023-03-15T12:10:18;4.80;99.90
47961;DHT22;33721;48.852;9.936;2023-03-15T12:12:46;4.90;99.90
47961;DHT22;33721;48.852;9.936;2023-03-15T12:17:55;4.80;99.90
47961;DHT22;33721;48.852;9.936;2023-03-15T12:20:34;4.90;99.90
47961;DHT22;33721;48.852;9.936;2023-03-15T12:25:55;5.00;99.90
47961;DHT22;33721;48.852;9.936;2023-03-15T12:29:04;5.00;99.90
47961;DHT22;33721;48.852;9.936;2023-03-15T12:31:52;5.00;99.90
47961;DHT22;33721;48.852;9.936;2023-03-15T12:34:25;5.00;99.90
47961;DHT22;33721;48.852;9.936;2023-03-15T12:37:02;5.20;99.90
47961;DHT22;33721;48.852;9.936;2023-03-15T12:39:41;5.20;99.90
47961;DHT22;33721;48.852;9.936;2023-03-15T12:56:39;5.20;99.90
47961;DHT22;33721;48.852;9.936;2023-03-15T12:59:19;5.20;99.90
47961;DHT22;33721;48.852;9.936;2023-03-15T13:01:49;5.10;99.90
47961;DHT22;33721;48.852;9.936;2023-03-15T13:04:15;5.20;99.90
47961;DHT22;33721;48.852;9.936;2023-03-15T13:07:08;5.20;99.90
47961;DHT22;33721;48.852;9.936;2023-03-15T13:15:01;5.50;99.90
47961;DHT22;33721;48.852;9.936;2023-03-15T13:17:41;5.60;99.90
47961;DHT22;33721;48.852;9.936;2023-03-15T13:20:18;5.60;99.90
47961;DHT22;33721;48.852;9.936;2023-03-15T13:23:05;5.60;99.90
47961;DHT22;33721;48.852;9.936;2023-03-15T13:30:40;5.00;99.90
47961;DHT22;33721;48.852;9.936;2023-03-15T13:40:56;4.80;99.90
47961;DHT22;33721;48.852;9.936;2023-03-15T13:43:28;4.60;99.90
47961;DHT22;33721;48.852;9.936;2023-03-15T13:45:56;4.40;99.90
47961;DHT22;33721;48.852;9.936;2023-03-15T13:48:22;4.20;99.90
47961;DHT22;33721;48.852;9.936;2023-03-15T13:50:51;4.20;99.90
47961;DHT22;33721;48.852;9.936;2023-03-15T13:53:24;4.10;99.90
47961;DHT22;33721;48.852;9.936;2023-03-15T13:55:52;4.00;99.90
47961;DHT22;33721;48.852;9.936;2023-03-15T13:58:19;3.80;99.90
47961;DHT22;33721;48.852;9.936;2023-03-15T14:00:47;3.70;99.90
47961;DHT22;33721;48.852;9.936;2023-03-15T14:03:19;3.50;99.90
47961;DHT22;33721;48.852;9.936;2023-03-15T14:05:49;3.50;99.90
47961;DHT22;33721;48.852;9.936;2023-03-15T14:13:27;3.40;99.90
47961;DHT22;33721;48.852;9.936;2023-03-15T14:16:04;3.40;99.90
47961;DHT22;33721;48.852;9.936;2023-03-15T14:18:40;3.40;99.90
47961;DHT22;33721;48.852;9.936;2023-03-15T14:23:38;3.70;99.90
47961;DHT22;33721;48.852;9.936;2023-03-15T14:26:16;4.00;99.90
47961;DHT22;33721;48.852;9.936;2023-03-15T14:28:51;4.30;99.90
47961;DHT22;33721;48.852;9.936;2023-03-15T14:31:24;4.50;99.90
47961;DHT22;33721;48.852;9.936;2023-03-15T14:33:56;4.10;99.90
47961;DHT22;33721;48.852;9.936;2023-03-15T14:36:33;3.90;99.90
47961;DHT22;33721;48.852;9.936;2023-03-15T14:39:04;3.90;99.90
47961;DHT22;33721;48.852;9.936;2023-03-15T14:41:37;3.90;99.90
47961;DHT22;33721;48.852;9.936;2023-03-15T14:44:03;3.90;99.90
47961;DHT22;33721;48.852;9.936;2023-03-15T14:46:32;3.80;99.90
47961;DHT22;33721;48.852;9.936;2023-03-15T14:48:57;3.90;99.90
47961;DHT22;33721;48.852;9.936;2023-03-15T14:51:23;3.90;99.90
47961;DHT22;33721;48.852;9.936;2023-03-15T14:53:52;4.00;99.90
47961;DHT22;33721;48.852;9.936;2023-03-15T14:56:21;4.10;99.90
47961;DHT22;33721;48.852;9.936;2023-03-15T14:58:47;4.10;99.90
47961;DHT22;33721;48.852;9.936;2023-03-15T15:01:20;4.00;99.90
47961;DHT22;33721;48.852;9.936;2023-03-15T15:03:55;4.00;99.90
47961;DHT22;33721;48.852;9.936;2023-03-15T15:06:27;4.00;99.90
47961;DHT22;33721;48.852;9.936;2023-03-15T15:08:58;4.20;99.90
47961;DHT22;33721;48.852;9.936;2023-03-15T15:11:25;4.40;99.90
47961;DHT22;33721;48.852;9.936;2023-03-15T15:13:51;4.40;99.90
47961;DHT22;33721;48.852;9.936;2023-03-15T15:16:17;4.50;99.90
47961;DHT22;33721;48.852;9.936;2023-03-15T15:18:42;4.50;99.90
47961;DHT22;33721;48.852;9.936;2023-03-15T15:21:28;4.50;99.90
47961;DHT22;33721;48.852;9.936;2023-03-15T15:23:55;4.50;99.90
47961;DHT22;33721;48.852;9.936;2023-03-15T15:26:22;4.50;99.90
47961;DHT22;33721;48.852;9.936;2023-03-15T15:28:50;4.40;99.90
47961;DHT22;33721;48.852;9.936;2023-03-15T15:31:19;4.30;99.90
47961;DHT22;33721;48.852;9.936;2023-03-15T15:33:47;4.40;99.90
47961;DHT22;33721;48.852;9.936;2023-03-15T15:36:42;4.50;99.90
47961;DHT22;33721;48.852;9.936;2023-03-15T15:39:21;4.60;99.90
47961;DHT22;33721;48.852;9.936;2023-03-15T15:41:47;4.60;99.90
47961;DHT22;33721;48.852;9.936;2023-03-15T15:44:18;4.50;99.90
47961;DHT22;33721;48.852;9.936;2023-03-15T15:46:44;4.40;99.90
47961;DHT22;33721;48.852;9.936;2023-03-15T15:49:10;4.50;99.90
47961;DHT22;33721;48.852;9.936;2023-03-15T15:51:38;4.40;99.90
47961;DHT22;33721;48.852;9.936;2023-03-15T15:54:18;4.50;99.90
47961;DHT22;33721;48.852;9.936;2023-03-15T15:56:54;4.50;99.90
47961;DHT22;33721;48.852;9.936;2023-03-15T15:59:20;4.40;99.90
47961;DHT22;33721;48.852;9.936;2023-03-15T16:01:46;4.30;99.90
47961;DHT22;33721;48.852;9.936;2023-03-15T16:04:15;4.30;99.90
47961;DHT22;33721;48.852;9.936;2023-03-15T16:06:41;4.30;99.90
47961;DHT22;33721;48.852;9.936;2023-03-15T16:09:07;4.30;99.90
47961;DHT22;33721;48.852;9.936;2023-03-15T16:11:35;4.20;99.90
47961;DHT22;33721;48.852;9.936;2023-03-15T16:14:01;4.20;99.90
47961;DHT22;33721;48.852;9.936;2023-03-15T16:16:26;4.20;99.90
47961;DHT22;33721;48.852;9.936;2023-03-15T16:18:52;4.30;99.90
47961;DHT22;33721;48.852;9.936;2023-03-15T16:21:44;4.30;99.90
47961;DHT22;33721;48.852;9.936;2023-03-15T16:24:28;4.30;99.90
47961;DHT22;33721;48.852;9.936;2023-03-15T16:27:03;4.40;99.90
47961;DHT22;33721;48.852;9.936;2023-03-15T16:29:36;4.40;99.90
47961;DHT22;33721;48.852;9.936;2023-03-15T16:32:02;4.40;99.90
47961;DHT22;33721;48.852;9.936;2023-03-15T16:34:29;4.40;99.90
47961;DHT22;33721;48.852;9.936;2023-03-15T16:36:54;4.30;99.90
47961;DHT22;33721;48.852;9.936;2023-03-15T16:39:20;4.30;99.90
47961;DHT22;33721;48.852;9.936;2023-03-15T16:41:47;4.20;99.90
47961;DHT22;33721;48.852;9.936;2023-03-15T16:44:15;4.20;99.90
47961;DHT22;33721;48.852;9.936;2023-03-15T16:46:42;4.10;99.90
47961;DHT22;33721;48.852;9.936;2023-03-15T16:49:08;4.10;99.90
47961;DHT22;33721;48.852;9.936;2023-03-15T16:51:35;4.10;99.90
47961;DHT22;33721;48.852;9.936;2023-03-15T16:54:02;4.10;99.90
47961;DHT22;33721;48.852;9.936;2023-03-15T16:56:31;4.10;99.90
47961;DHT22;33721;48.852;9.936;2023-03-15T16:58:57;4.00;99.90
47961;DHT22;33721;48.852;9.936;2023-03-15T17:01:23;4.00;99.90
47961;DHT22;33721;48.852;9.936;2023-03-15T17:03:50;3.90;99.90
47961;DHT22;33721;48.852;9.936;2023-03-15T17:06:18;3.90;99.90
47961;DHT22;33721;48.852;9.936;2023-03-15T17:08:48;3.80;99.90
47961;DHT22;33721;48.852;9.936;2023-03-15T17:11:15;3.80;99.90
47961;DHT22;33721;48.852;9.936;2023-03-15T17:13:41;3.80;99.90